createdAt,value
2022-11-28T00:01:39.308Z,27.83
2022-11-28T00:04:08.984Z,28.20
2022-11-28T00:06:38.584Z,28.85
2022-11-28T00:09:07.158Z,27.60
2022-11-28T00:11:35.197Z,27.40
2022-11-28T00:14:04.527Z,27.55
2022-11-28T00:16:32.617Z,27.25
2022-11-28T00:19:02.255Z,26.15
2022-11-28T00:21:31.206Z,26.67
2022-11-28T00:24:00.282Z,27.10
2022-11-28T00:26:30.614Z,26.67
2022-11-28T00:28:59.715Z,26.63
2022-11-28T00:31:30.895Z,24.42
2022-11-28T00:33:59.055Z,26.13
2022-11-28T00:36:27.069Z,24.65
2022-11-28T00:38:55.565Z,24.85
2022-11-28T00:41:25.617Z,24.95
2022-11-28T00:43:54.002Z,24.40
2022-11-28T00:46:23.476Z,24.98
2022-11-28T00:48:53.839Z,24.95
2022-11-28T00:51:23.432Z,25.27
2022-11-28T00:53:53.190Z,23.50
2022-11-28T00:56:24.118Z,23.58
2022-11-28T00:58:52.657Z,23.40
2022-11-28T01:01:23.024Z,23.63
2022-11-28T01:03:53.875Z,22.98
2022-11-28T01:06:23.258Z,22.98
2022-11-28T01:08:51.391Z,22.75
2022-11-28T01:11:19.959Z,23.00
2022-11-28T01:13:47.970Z,22.55
2022-11-28T01:16:16.488Z,22.70
2022-11-28T01:18:44.426Z,22.55
2022-11-28T01:21:13.791Z,23.05
2022-11-28T01:23:41.640Z,22.25
2022-11-28T01:26:12.503Z,22.73
2022-11-28T01:28:40.474Z,23.05
2022-11-28T01:31:10.815Z,23.20
2022-11-28T01:33:38.774Z,22.60
2022-11-28T01:36:07.634Z,22.88
2022-11-28T01:38:37.069Z,23.02
2022-11-28T01:41:05.640Z,22.95
2022-11-28T01:43:33.570Z,22.65
2022-11-28T01:46:03.240Z,23.48
2022-11-28T01:48:35.357Z,23.73
2022-11-28T01:51:07.984Z,23.25
2022-11-28T01:53:42.749Z,23.00
2022-11-28T01:56:16.274Z,23.25
2022-11-28T01:58:48.699Z,23.45
2022-11-28T02:01:17.570Z,22.70
2022-11-28T02:03:48.141Z,23.02
2022-11-28T02:06:20.091Z,23.02
2022-11-28T02:08:51.979Z,23.60
2022-11-28T02:11:55.986Z,23.48
2022-11-28T02:14:35.870Z,23.48
2022-11-28T02:17:16.338Z,23.08
2022-11-28T02:20:16.695Z,22.67
2022-11-28T02:22:52.186Z,23.23
2022-11-28T02:25:46.617Z,22.88
2022-11-28T02:28:44.821Z,22.48
2022-11-28T02:31:28.849Z,22.92
2022-11-28T02:34:02.048Z,23.13
2022-11-28T02:36:34.261Z,22.70
2022-11-28T02:39:14.669Z,22.85
2022-11-28T02:41:45.945Z,22.75
2022-11-28T02:44:17.576Z,22.50
2022-11-28T02:46:53.708Z,22.30
2022-11-28T02:49:27.463Z,22.42
2022-11-28T02:51:59.286Z,22.35
2022-11-28T02:54:28.463Z,22.42
2022-11-28T02:56:56.625Z,22.13
2022-11-28T02:59:33.037Z,22.48
2022-11-28T03:02:02.526Z,23.17
2022-11-28T03:04:44.566Z,23.55
2022-11-28T03:07:22.382Z,23.65
2022-11-28T03:10:11.632Z,22.90
2022-11-28T03:12:52.729Z,23.35
2022-11-28T03:15:25.878Z,23.23
2022-11-28T03:18:03.350Z,22.65
2022-11-28T03:20:43.500Z,23.50
2022-11-28T03:23:16.281Z,23.27
2022-11-28T03:25:54.764Z,23.77
2022-11-28T03:28:27.002Z,23.63
2022-11-28T03:31:00.098Z,22.83
2022-11-28T03:33:32.939Z,23.02
2022-11-28T03:36:05.797Z,23.10
2022-11-28T03:38:37.287Z,24.05
2022-11-28T03:41:11.791Z,23.90
2022-11-28T03:43:45.818Z,24.13
2022-11-28T03:46:19.583Z,24.73
2022-11-28T03:48:52.255Z,24.17
2022-11-28T03:51:26.947Z,24.95
2022-11-28T03:54:00.291Z,25.10
2022-11-28T03:56:36.739Z,23.67
2022-11-28T03:59:10.827Z,24.63
2022-11-28T04:01:45.758Z,25.23
2022-11-28T04:04:23.969Z,24.70
2022-11-28T04:06:58.622Z,24.15
2022-11-28T04:09:38.847Z,24.40
2022-11-28T04:12:11.366Z,24.13
2022-11-28T04:14:45.326Z,24.50
2022-11-28T04:17:20.654Z,27.67
2022-11-28T04:19:52.973Z,27.63
2022-11-28T04:22:28.119Z,28.42
2022-11-28T04:25:00.935Z,28.27
2022-11-28T04:27:33.077Z,28.25
2022-11-28T04:30:04.158Z,29.23
2022-11-28T04:32:35.518Z,28.77
2022-11-28T04:35:07.399Z,27.80
2022-11-28T04:37:40.566Z,28.00
2022-11-28T04:40:11.886Z,28.90
2022-11-28T04:42:45.667Z,28.38
2022-11-28T04:45:17.758Z,29.42
2022-11-28T04:47:46.574Z,29.65
2022-11-28T04:50:14.744Z,30.25
2022-11-28T04:52:52.765Z,29.98
2022-11-28T04:55:29.623Z,31.05
2022-11-28T04:58:03.403Z,30.60
2022-11-28T05:00:34.347Z,30.88
2022-11-28T05:03:02.907Z,29.65
2022-11-28T05:05:31.162Z,31.38
2022-11-28T05:08:00.608Z,32.75
2022-11-28T05:10:28.556Z,30.63
2022-11-28T05:12:56.932Z,31.55
2022-11-28T05:15:24.846Z,32.47
2022-11-28T05:17:53.178Z,32.13
2022-11-28T05:20:21.036Z,32.40
2022-11-28T05:22:49.116Z,32.75
2022-11-28T05:25:18.895Z,36.08
2022-11-28T05:27:46.861Z,33.35
2022-11-28T05:30:15.539Z,33.10
2022-11-28T05:32:43.605Z,32.95
2022-11-28T05:35:11.725Z,33.15
2022-11-28T05:37:39.895Z,33.42
2022-11-28T05:40:08.877Z,33.08
2022-11-28T05:42:38.255Z,33.08
2022-11-28T05:45:06.656Z,34.63
2022-11-28T05:47:35.063Z,33.53
2022-11-28T05:50:02.997Z,35.20
2022-11-28T05:52:32.346Z,34.45
2022-11-28T05:55:01.454Z,34.58
2022-11-28T05:57:32.084Z,35.08
2022-11-28T06:00:01.701Z,35.47
2022-11-28T06:02:29.905Z,34.13
2022-11-28T06:04:59.965Z,34.88
2022-11-28T06:07:32.687Z,35.50
2022-11-28T06:10:00.640Z,39.28
2022-11-28T06:12:28.703Z,35.63
2022-11-28T06:14:56.707Z,40.47
2022-11-28T06:17:26.089Z,48.60
2022-11-28T06:19:53.973Z,39.47
2022-11-28T06:22:21.946Z,41.63
2022-11-28T06:24:50.799Z,42.65
2022-11-28T06:27:18.862Z,39.67
2022-11-28T06:29:46.664Z,41.67
2022-11-28T06:32:17.667Z,36.92
2022-11-28T06:34:51.078Z,37.10
2022-11-28T06:37:18.936Z,38.33
2022-11-28T06:39:47.022Z,38.97
2022-11-28T06:42:16.155Z,36.35
2022-11-28T06:44:44.228Z,36.85
2022-11-28T06:47:12.151Z,36.28
2022-11-28T06:49:40.194Z,38.97
2022-11-28T06:52:09.604Z,42.15
2022-11-28T06:54:37.511Z,46.30
2022-11-28T06:57:05.497Z,40.70
2022-11-28T06:59:33.678Z,40.72
2022-11-28T07:02:07.469Z,38.67
2022-11-28T07:04:36.010Z,40.25
2022-11-28T07:07:04.094Z,40.92
2022-11-28T07:09:33.705Z,42.63
2022-11-28T07:12:01.812Z,41.47
2022-11-28T07:14:30.013Z,42.75
2022-11-28T07:16:58.240Z,39.63
2022-11-28T07:19:26.229Z,39.30
2022-11-28T07:21:54.231Z,39.85
2022-11-28T07:24:22.312Z,41.65
2022-11-28T07:26:52.914Z,37.50
2022-11-28T07:29:20.842Z,34.78
2022-11-28T07:31:49.116Z,43.38
2022-11-28T07:34:17.664Z,44.45
2022-11-28T07:36:47.258Z,42.05
2022-11-28T07:39:17.854Z,42.65
2022-11-28T07:41:45.987Z,44.10
2022-11-28T07:44:17.902Z,47.00
2022-11-28T07:46:46.609Z,35.63
2022-11-28T07:49:15.061Z,44.80
2022-11-28T07:51:43.368Z,38.88
2022-11-28T07:54:11.857Z,46.03
2022-11-28T07:57:12.301Z,42.45
2022-11-28T07:59:32.956Z,43.42
2022-11-28T08:02:00.869Z,49.75
2022-11-28T08:04:28.916Z,47.92
2022-11-28T08:06:57.004Z,46.38
2022-11-28T08:09:25.041Z,45.60
2022-11-28T08:11:53.099Z,38.60
2022-11-28T08:14:21.105Z,43.83
2022-11-28T08:16:51.032Z,50.35
2022-11-28T08:19:22.989Z,43.40
2022-11-28T08:21:53.036Z,48.65
2022-11-28T08:24:20.978Z,48.30
2022-11-28T08:26:48.860Z,45.72
2022-11-28T08:29:16.851Z,48.13
2022-11-28T08:31:44.855Z,49.30
2022-11-28T08:34:14.276Z,46.15
2022-11-28T08:36:43.424Z,46.72
2022-11-28T08:39:27.793Z,48.65
2022-11-28T08:41:58.877Z,48.35
2022-11-28T08:44:30.364Z,43.08
2022-11-28T08:46:58.654Z,45.55
2022-11-28T08:49:28.466Z,47.70
2022-11-28T08:51:56.674Z,48.30
2022-11-28T08:54:24.641Z,45.28
2022-11-28T08:56:52.617Z,45.70
2022-11-28T08:59:21.013Z,44.30
2022-11-28T09:01:49.018Z,46.63
2022-11-28T09:04:17.013Z,43.80
2022-11-28T09:06:46.403Z,42.05
2022-11-28T09:09:14.445Z,42.05
2022-11-28T09:11:43.216Z,40.05
2022-11-28T09:14:11.172Z,42.67
2022-11-28T09:16:39.489Z,39.58
2022-11-28T09:19:09.235Z,40.05
2022-11-28T09:21:37.408Z,44.85
2022-11-28T09:24:09.371Z,36.92
2022-11-28T09:26:37.352Z,40.85
2022-11-28T09:29:05.486Z,34.72
2022-11-28T09:31:33.530Z,38.45
2022-11-28T09:34:03.466Z,35.65
2022-11-28T09:36:33.003Z,37.63
2022-11-28T09:39:01.848Z,35.63
2022-11-28T09:41:57.677Z,43.83
2022-11-28T09:44:38.483Z,37.65
2022-11-28T09:47:14.999Z,37.60
2022-11-28T09:49:47.616Z,35.67
2022-11-28T09:52:33.264Z,36.85
2022-11-28T09:55:13.125Z,34.97
2022-11-28T09:57:46.410Z,35.22
2022-11-28T10:00:21.607Z,35.58
2022-11-28T10:03:15.338Z,36.17
2022-11-28T10:05:47.579Z,36.65
2022-11-28T10:08:24.231Z,39.08
2022-11-28T10:11:03.438Z,41.38
2022-11-28T10:14:06.498Z,37.70
2022-11-28T10:16:42.788Z,39.58
2022-11-28T10:19:31.662Z,40.60
2022-11-28T10:22:05.764Z,40.05
2022-11-28T10:24:39.586Z,40.08
2022-11-28T10:27:08.332Z,40.83
2022-11-28T10:29:47.199Z,42.42
2022-11-28T10:32:19.035Z,38.05
2022-11-28T10:34:54.687Z,35.85
2022-11-28T10:37:26.758Z,36.08
2022-11-28T10:39:56.459Z,36.42
2022-11-28T10:42:33.848Z,42.63
2022-11-28T10:45:17.430Z,39.83
2022-11-28T10:48:29.544Z,39.08
2022-11-28T10:50:54.242Z,40.58
2022-11-28T10:53:35.314Z,42.85
2022-11-28T10:56:14.806Z,38.08
2022-11-28T10:58:52.156Z,37.60
2022-11-28T11:01:22.087Z,38.80
2022-11-28T11:03:50.954Z,39.92
2022-11-28T11:06:19.462Z,43.35
2022-11-28T11:08:50.579Z,40.95
2022-11-28T11:11:27.807Z,45.40
2022-11-28T11:13:59.975Z,39.65
2022-11-28T11:16:48.355Z,46.28
2022-11-28T11:19:25.404Z,43.13
2022-11-28T11:22:01.880Z,41.42
2022-11-28T11:24:29.846Z,39.55
2022-11-28T11:27:06.082Z,38.58
2022-11-28T11:29:36.724Z,43.70
2022-11-28T11:32:19.456Z,37.65
2022-11-28T11:34:48.400Z,37.75
2022-11-28T11:37:32.733Z,40.35
2022-11-28T11:40:01.790Z,37.40
2022-11-28T11:42:31.704Z,38.95
2022-11-28T11:45:27.448Z,37.03
2022-11-28T11:47:56.984Z,37.92
2022-11-28T11:50:28.314Z,37.03
2022-11-28T11:53:05.095Z,36.60
2022-11-28T11:55:38.541Z,40.45
2022-11-28T11:58:08.384Z,36.67
2022-11-28T12:00:39.586Z,36.00
2022-11-28T12:03:17.484Z,35.42
2022-11-28T12:06:13.333Z,35.85
2022-11-28T12:08:45.276Z,34.10
2022-11-28T12:11:17.854Z,38.03
2022-11-28T12:13:45.823Z,35.42
2022-11-28T12:16:31.444Z,34.55
2022-11-28T12:19:11.590Z,37.25
2022-11-28T12:21:48.395Z,37.90
2022-11-28T12:24:18.441Z,31.27
2022-11-28T12:26:49.875Z,32.90
2022-11-28T12:29:38.782Z,34.67
2022-11-28T12:32:22.190Z,33.42
2022-11-28T12:35:03.702Z,34.22
2022-11-28T12:40:41.250Z,34.40
2022-11-28T12:43:22.925Z,35.03
2022-11-28T12:46:00.022Z,35.38
2022-11-28T12:48:42.720Z,35.65
2022-11-28T12:51:23.335Z,36.38
2022-11-28T12:54:28.008Z,35.70
2022-11-28T15:32:43.752Z,35.25
2022-11-28T15:35:44.880Z,36.65
2022-11-28T15:38:50.782Z,35.33
2022-11-28T15:42:02.326Z,35.08
2022-11-28T15:45:02.381Z,34.10
2022-11-28T15:51:15.964Z,33.10
2022-11-28T15:54:18.908Z,33.78
2022-11-28T16:34:46.595Z,40.30
2022-11-28T16:56:01.436Z,55.05
2022-11-28T16:58:44.870Z,57.92
2022-11-28T17:01:50.602Z,48.15
2022-11-28T17:05:11.838Z,53.53
2022-11-28T17:08:26.107Z,54.85
2022-11-28T17:11:42.849Z,64.40
2022-11-28T17:18:27.623Z,68.78
2022-11-28T17:21:21.862Z,60.50
2022-11-28T17:24:47.137Z,76.80
2022-11-28T17:27:48.712Z,70.55
2022-11-28T17:30:53.096Z,69.55
2022-11-28T17:33:23.101Z,68.72
2022-11-28T17:36:10.510Z,71.40
2022-11-28T17:38:50.983Z,71.03
2022-11-28T17:41:19.396Z,71.03
2022-11-28T17:43:54.361Z,65.03
2022-11-28T17:46:34.882Z,71.90
2022-11-28T17:49:28.001Z,72.43
2022-11-28T17:55:20.894Z,63.35
2022-11-28T17:57:56.806Z,73.07
2022-11-28T18:01:00.177Z,62.42
2022-11-28T18:03:41.963Z,61.58
2022-11-28T18:09:53.210Z,75.90
2022-11-28T18:16:51.473Z,69.97
2022-11-28T18:22:43.619Z,69.65
2022-11-28T18:25:29.212Z,68.60
2022-11-28T18:34:45.826Z,66.82
2022-11-28T18:41:45.942Z,70.95
2022-11-28T18:44:45.753Z,63.60
2022-11-28T18:47:19.991Z,59.13
2022-11-28T18:49:58.603Z,60.85
2022-11-28T18:52:34.080Z,59.70
2022-11-28T18:56:51.835Z,52.80
2022-11-28T18:59:25.840Z,58.45
2022-11-28T19:02:12.297Z,56.42
2022-11-28T19:04:50.138Z,60.00
2022-11-28T19:07:54.463Z,66.95
2022-11-28T19:10:29.940Z,61.25
2022-11-28T19:13:01.384Z,66.90
2022-11-28T19:15:29.971Z,62.88
2022-11-28T19:18:25.878Z,61.95
2022-11-28T19:21:06.957Z,62.15
2022-11-28T19:23:37.540Z,75.03
2022-11-28T19:26:13.506Z,63.15
2022-11-28T19:29:02.113Z,60.03
2022-11-28T19:31:47.065Z,59.55
2022-11-28T19:34:28.829Z,64.45
2022-11-28T19:37:04.312Z,64.97
2022-11-28T19:39:36.796Z,67.68
2022-11-28T19:42:07.928Z,63.15
2022-11-28T19:44:39.406Z,60.35
2022-11-28T19:47:14.211Z,57.25
2022-11-28T19:49:44.113Z,61.47
2022-11-28T19:52:15.577Z,66.75
2022-11-28T19:54:43.693Z,56.22
2022-11-28T19:58:30.041Z,60.47
2022-11-28T20:01:05.799Z,62.25
2022-11-28T20:03:50.094Z,61.03
2022-11-28T20:06:32.116Z,60.10
2022-11-28T20:09:09.747Z,71.63
2022-11-28T20:11:42.735Z,64.28
2022-11-28T20:14:17.050Z,54.95
2022-11-28T20:19:52.888Z,55.55
2022-11-28T20:22:30.350Z,59.08
2022-11-28T20:26:01.994Z,51.30
2022-11-28T20:32:45.998Z,56.83
2022-11-28T20:35:36.480Z,51.40
2022-11-28T20:38:20.751Z,56.42
2022-11-28T20:41:13.924Z,51.95
2022-11-28T20:43:48.963Z,45.17
2022-11-28T20:46:54.635Z,51.63
2022-11-28T20:49:26.128Z,90.97
2022-11-28T20:52:03.317Z,114.05
2022-11-28T20:54:48.098Z,34.28
2022-11-28T20:57:24.918Z,47.25
2022-11-28T21:00:04.580Z,60.20
2022-11-28T21:02:48.203Z,39.00
2022-11-28T21:05:29.763Z,55.65
2022-11-28T21:08:12.132Z,109.43
2022-11-28T21:10:53.605Z,148.80
2022-11-28T21:13:31.606Z,41.03
2022-11-28T21:16:23.415Z,73.05
2022-11-28T21:19:08.998Z,37.50
2022-11-28T21:21:49.244Z,55.65
2022-11-28T21:24:30.487Z,41.40
2022-11-28T21:27:10.589Z,42.30
2022-11-28T21:29:52.344Z,40.75
2022-11-28T21:32:26.310Z,35.30
2022-11-28T21:35:15.322Z,37.08
2022-11-28T21:37:45.799Z,38.33
2022-11-28T21:40:24.099Z,39.58
2022-11-28T21:42:54.341Z,44.67
2022-11-28T21:45:26.210Z,38.70
2022-11-28T21:48:01.957Z,34.17
2022-11-28T21:50:47.478Z,35.33
2022-11-28T21:53:16.957Z,34.42
2022-11-28T21:55:47.833Z,32.88
2022-11-28T21:58:53.615Z,41.75
2022-11-28T22:01:59.257Z,34.03
2022-11-28T22:04:47.844Z,36.45
2022-11-28T22:07:35.909Z,38.20
2022-11-28T22:10:32.870Z,37.08
2022-11-28T22:13:09.418Z,38.58
2022-11-28T22:16:02.324Z,37.67
2022-11-28T22:18:35.101Z,40.67
2022-11-28T22:24:50.964Z,39.15
2022-11-28T22:28:03.023Z,39.67
2022-11-28T22:30:34.569Z,38.33
2022-11-28T22:33:25.369Z,37.10
2022-11-28T22:36:18.055Z,37.83
2022-11-28T22:39:09.239Z,41.00
2022-11-28T22:41:45.010Z,37.47
2022-11-28T22:44:23.950Z,37.17
2022-11-28T22:47:00.341Z,36.95
2022-11-28T22:49:38.137Z,36.17
2022-11-28T22:52:09.826Z,37.17
2022-11-28T22:54:41.206Z,51.73
2022-11-28T22:57:16.344Z,142.02
2022-11-28T23:00:11.284Z,43.80
2022-11-28T23:02:46.414Z,76.17
2022-11-28T23:05:19.956Z,106.40
2022-11-28T23:08:28.179Z,47.63
2022-11-28T23:15:03.511Z,51.58
2022-11-28T23:17:36.606Z,72.32
2022-11-28T23:20:05.689Z,71.97
2022-11-28T23:22:50.924Z,74.60
2022-11-28T23:25:22.928Z,38.97
2022-11-28T23:27:58.000Z,56.00
2022-11-28T23:30:35.556Z,38.30
2022-11-28T23:33:05.389Z,54.20
2022-11-28T23:35:39.695Z,69.90
2022-11-28T23:38:11.036Z,165.90
2022-11-28T23:40:43.955Z,79.60
2022-11-28T23:43:16.152Z,30.93
2022-11-28T23:45:46.301Z,38.17
2022-11-28T23:48:25.133Z,30.17
2022-11-28T23:51:00.112Z,32.47
2022-11-28T23:53:32.959Z,42.47
2022-11-28T23:56:05.492Z,50.73
2022-11-28T23:58:36.678Z,83.17
